sensor_id;sensor_type;location;lat;lon;timestamp;P1;durP1;ratioP1;P2;durP2;ratioP2
9322;SDS011;4700;48.822;9.270;2022-08-21T00:00:17;6.30;;;5.70;;
9322;SDS011;4700;48.822;9.270;2022-08-21T00:03:10;5.20;;;4.80;;
9322;SDS011;4700;48.822;9.270;2022-08-21T00:05:56;6.87;;;6.37;;
9322;SDS011;4700;48.822;9.270;2022-08-21T00:08:42;5.93;;;5.40;;
9322;SDS011;4700;48.822;9.270;2022-08-21T00:11:30;6.00;;;5.37;;
9322;SDS011;4700;48.822;9.270;2022-08-21T00:14:16;5.73;;;5.20;;
9322;SDS011;4700;48.822;9.270;2022-08-21T00:17:03;5.50;;;5.10;;
9322;SDS011;4700;48.822;9.270;2022-08-21T00:19:50;4.80;;;4.40;;
9322;SDS011;4700;48.822;9.270;2022-08-21T00:22:36;5.90;;;5.40;;
9322;SDS011;4700;48.822;9.270;2022-08-21T00:25:23;4.73;;;4.33;;
9322;SDS011;4700;48.822;9.270;2022-08-21T00:28:10;5.43;;;5.03;;
9322;SDS011;4700;48.822;9.270;2022-08-21T00:30:56;5.33;;;4.77;;
9322;SDS011;4700;48.822;9.270;2022-08-21T00:33:42;5.93;;;5.43;;
9322;SDS011;4700;48.822;9.270;2022-08-21T00:36:29;5.30;;;4.90;;
9322;SDS011;4700;48.822;9.270;2022-08-21T00:39:14;5.87;;;5.27;;
9322;SDS011;4700;48.822;9.270;2022-08-21T00:42:00;5.97;;;5.33;;
9322;SDS011;4700;48.822;9.270;2022-08-21T00:44:47;6.70;;;6.10;;
9322;SDS011;4700;48.822;9.270;2022-08-21T00:47:33;6.23;;;5.53;;
9322;SDS011;4700;48.822;9.270;2022-08-21T00:50:19;6.93;;;5.80;;
9322;SDS011;4700;48.822;9.270;2022-08-21T00:53:07;6.57;;;6.07;;
9322;SDS011;4700;48.822;9.270;2022-08-21T00:55:55;7.07;;;6.30;;
9322;SDS011;4700;48.822;9.270;2022-08-21T00:58:41;5.60;;;5.13;;
9322;SDS011;4700;48.822;9.270;2022-08-21T01:01:28;7.53;;;5.83;;
9322;SDS011;4700;48.822;9.270;2022-08-21T01:04:14;6.00;;;5.50;;
9322;SDS011;4700;48.822;9.270;2022-08-21T01:07:00;5.80;;;5.27;;
9322;SDS011;4700;48.822;9.270;2022-08-21T01:09:47;5.47;;;5.07;;
9322;SDS011;4700;48.822;9.270;2022-08-21T01:12:33;6.43;;;5.80;;
9322;SDS011;4700;48.822;9.270;2022-08-21T01:15:19;6.90;;;6.30;;
9322;SDS011;4700;48.822;9.270;2022-08-21T01:18:08;5.60;;;5.10;;
9322;SDS011;4700;48.822;9.270;2022-08-21T01:21:02;9.53;;;6.50;;
9322;SDS011;4700;48.822;9.270;2022-08-21T01:23:51;6.00;;;5.30;;
9322;SDS011;4700;48.822;9.270;2022-08-21T01:26:38;6.80;;;6.20;;
9322;SDS011;4700;48.822;9.270;2022-08-21T01:29:26;6.50;;;5.97;;
9322;SDS011;4700;48.822;9.270;2022-08-21T01:32:19;6.53;;;5.90;;
9322;SDS011;4700;48.822;9.270;2022-08-21T01:35:06;7.70;;;5.33;;
9322;SDS011;4700;48.822;9.270;2022-08-21T01:37:54;6.70;;;4.50;;
9322;SDS011;4700;48.822;9.270;2022-08-21T01:40:39;5.60;;;4.60;;
9322;SDS011;4700;48.822;9.270;2022-08-21T01:43:25;5.03;;;4.63;;
9322;SDS011;4700;48.822;9.270;2022-08-21T01:46:02;6.13;;;5.57;;
9322;SDS011;4700;48.822;9.270;2022-08-21T01:48:49;8.10;;;4.70;;
9322;SDS011;4700;48.822;9.270;2022-08-21T01:51:35;5.07;;;3.80;;
9322;SDS011;4700;48.822;9.270;2022-08-21T01:54:22;6.00;;;4.37;;
9322;SDS011;4700;48.822;9.270;2022-08-21T01:57:08;4.90;;;4.50;;
9322;SDS011;4700;48.822;9.270;2022-08-21T01:59:54;6.77;;;5.23;;
9322;SDS011;4700;48.822;9.270;2022-08-21T02:02:42;5.83;;;5.23;;
9322;SDS011;4700;48.822;9.270;2022-08-21T02:05:28;6.93;;;6.23;;
9322;SDS011;4700;48.822;9.270;2022-08-21T02:08:14;7.30;;;6.70;;
9322;SDS011;4700;48.822;9.270;2022-08-21T02:11:01;7.00;;;5.10;;
9322;SDS011;4700;48.822;9.270;2022-08-21T02:13:47;6.00;;;5.03;;
9322;SDS011;4700;48.822;9.270;2022-08-21T02:16:32;6.40;;;5.90;;
9322;SDS011;4700;48.822;9.270;2022-08-21T02:19:18;5.10;;;4.73;;
9322;SDS011;4700;48.822;9.270;2022-08-21T02:22:04;5.77;;;5.20;;
9322;SDS011;4700;48.822;9.270;2022-08-21T02:24:49;5.80;;;5.30;;
9322;SDS011;4700;48.822;9.270;2022-08-21T02:27:39;5.80;;;5.30;;
9322;SDS011;4700;48.822;9.270;2022-08-21T02:30:27;5.10;;;4.60;;
9322;SDS011;4700;48.822;9.270;2022-08-21T02:33:15;5.00;;;4.60;;
9322;SDS011;4700;48.822;9.270;2022-08-21T02:36:02;6.37;;;5.87;;
9322;SDS011;4700;48.822;9.270;2022-08-21T02:38:49;7.70;;;5.20;;
9322;SDS011;4700;48.822;9.270;2022-08-21T02:41:35;6.13;;;5.40;;
9322;SDS011;4700;48.822;9.270;2022-08-21T02:44:22;5.63;;;5.13;;
9322;SDS011;4700;48.822;9.270;2022-08-21T02:47:07;5.63;;;5.20;;
9322;SDS011;4700;48.822;9.270;2022-08-21T02:49:53;4.80;;;4.40;;
9322;SDS011;4700;48.822;9.270;2022-08-21T02:52:39;5.83;;;5.33;;
9322;SDS011;4700;48.822;9.270;2022-08-21T02:55:25;6.20;;;5.60;;
9322;SDS011;4700;48.822;9.270;2022-08-21T02:58:12;5.97;;;5.47;;
9322;SDS011;4700;48.822;9.270;2022-08-21T03:01:00;6.63;;;5.97;;
9322;SDS011;4700;48.822;9.270;2022-08-21T03:03:46;5.27;;;4.83;;
9322;SDS011;4700;48.822;9.270;2022-08-21T03:06:34;5.47;;;5.07;;
9322;SDS011;4700;48.822;9.270;2022-08-21T03:09:20;6.10;;;5.50;;
9322;SDS011;4700;48.822;9.270;2022-08-21T03:12:06;5.70;;;4.90;;
9322;SDS011;4700;48.822;9.270;2022-08-21T03:14:52;6.07;;;5.40;;
9322;SDS011;4700;48.822;9.270;2022-08-21T03:17:39;9.03;;;5.47;;
9322;SDS011;4700;48.822;9.270;2022-08-21T03:20:26;5.63;;;4.97;;
9322;SDS011;4700;48.822;9.270;2022-08-21T03:23:13;8.00;;;5.13;;
9322;SDS011;4700;48.822;9.270;2022-08-21T03:25:59;5.73;;;5.33;;
9322;SDS011;4700;48.822;9.270;2022-08-21T03:28:45;6.30;;;5.63;;
9322;SDS011;4700;48.822;9.270;2022-08-21T03:31:31;6.10;;;5.30;;
9322;SDS011;4700;48.822;9.270;2022-08-21T03:34:21;6.27;;;5.73;;
9322;SDS011;4700;48.822;9.270;2022-08-21T03:37:07;6.70;;;5.20;;
9322;SDS011;4700;48.822;9.270;2022-08-21T03:39:54;5.20;;;4.80;;
9322;SDS011;4700;48.822;9.270;2022-08-21T03:42:40;6.07;;;5.43;;
9322;SDS011;4700;48.822;9.270;2022-08-21T03:45:26;5.70;;;5.10;;
9322;SDS011;4700;48.822;9.270;2022-08-21T03:48:12;6.00;;;5.00;;
9322;SDS011;4700;48.822;9.270;2022-08-21T03:50:59;5.37;;;4.87;;
9322;SDS011;4700;48.822;9.270;2022-08-21T03:53:45;7.47;;;5.00;;
9322;SDS011;4700;48.822;9.270;2022-08-21T03:56:31;5.10;;;4.70;;
9322;SDS011;4700;48.822;9.270;2022-08-21T03:59:17;5.40;;;5.00;;
9322;SDS011;4700;48.822;9.270;2022-08-21T04:02:06;4.83;;;4.43;;
9322;SDS011;4700;48.822;9.270;2022-08-21T04:04:52;5.00;;;4.50;;
9322;SDS011;4700;48.822;9.270;2022-08-21T04:07:39;5.50;;;5.00;;
9322;SDS011;4700;48.822;9.270;2022-08-21T04:10:26;5.20;;;4.70;;
9322;SDS011;4700;48.822;9.270;2022-08-21T04:13:14;5.43;;;5.03;;
9322;SDS011;4700;48.822;9.270;2022-08-21T04:16:00;6.30;;;5.70;;
9322;SDS011;4700;48.822;9.270;2022-08-21T04:18:45;5.57;;;5.07;;
9322;SDS011;4700;48.822;9.270;2022-08-21T04:21:31;4.77;;;4.40;;
9322;SDS011;4700;48.822;9.270;2022-08-21T04:24:18;5.90;;;5.30;;
9322;SDS011;4700;48.822;9.270;2022-08-21T04:27:04;6.13;;;5.63;;
9322;SDS011;4700;48.822;9.270;2022-08-21T04:29:49;6.10;;;5.47;;
9322;SDS011;4700;48.822;9.270;2022-08-21T04:32:35;5.53;;;5.10;;
9322;SDS011;4700;48.822;9.270;2022-08-21T04:35:22;6.97;;;6.20;;
9322;SDS011;4700;48.822;9.270;2022-08-21T04:38:08;5.83;;;5.33;;
9322;SDS011;4700;48.822;9.270;2022-08-21T04:40:55;6.53;;;5.93;;
9322;SDS011;4700;48.822;9.270;2022-08-21T04:43:41;6.87;;;6.03;;
9322;SDS011;4700;48.822;9.270;2022-08-21T04:46:27;6.00;;;5.60;;
9322;SDS011;4700;48.822;9.270;2022-08-21T04:49:13;6.60;;;6.10;;
9322;SDS011;4700;48.822;9.270;2022-08-21T04:51:59;6.63;;;6.10;;
9322;SDS011;4700;48.822;9.270;2022-08-21T04:54:45;6.20;;;5.60;;
9322;SDS011;4700;48.822;9.270;2022-08-21T04:57:33;6.87;;;6.33;;
9322;SDS011;4700;48.822;9.270;2022-08-21T05:00:22;6.03;;;5.53;;
9322;SDS011;4700;48.822;9.270;2022-08-21T05:03:09;9.07;;;6.60;;
9322;SDS011;4700;48.822;9.270;2022-08-21T05:05:56;8.53;;;6.33;;
9322;SDS011;4700;48.822;9.270;2022-08-21T05:08:42;6.97;;;5.73;;
9322;SDS011;4700;48.822;9.270;2022-08-21T05:11:32;6.17;;;5.60;;
9322;SDS011;4700;48.822;9.270;2022-08-21T05:14:20;6.20;;;5.70;;
9322;SDS011;4700;48.822;9.270;2022-08-21T05:17:05;6.20;;;5.60;;
9322;SDS011;4700;48.822;9.270;2022-08-21T05:19:51;6.50;;;5.80;;
9322;SDS011;4700;48.822;9.270;2022-08-21T05:22:37;8.53;;;5.23;;
9322;SDS011;4700;48.822;9.270;2022-08-21T05:25:23;7.00;;;5.70;;
9322;SDS011;4700;48.822;9.270;2022-08-21T05:28:10;7.70;;;5.03;;
9322;SDS011;4700;48.822;9.270;2022-08-21T05:30:58;6.33;;;4.43;;
9322;SDS011;4700;48.822;9.270;2022-08-21T05:33:44;5.50;;;4.70;;
9322;SDS011;4700;48.822;9.270;2022-08-21T05:36:30;6.50;;;5.97;;
9322;SDS011;4700;48.822;9.270;2022-08-21T05:39:16;4.87;;;4.47;;
9322;SDS011;4700;48.822;9.270;2022-08-21T05:42:01;8.20;;;4.30;;
9322;SDS011;4700;48.822;9.270;2022-08-21T05:44:48;5.43;;;4.93;;
9322;SDS011;4700;48.822;9.270;2022-08-21T05:47:34;4.00;;;3.70;;
9322;SDS011;4700;48.822;9.270;2022-08-21T05:50:20;5.67;;;5.10;;
9322;SDS011;4700;48.822;9.270;2022-08-21T05:53:06;5.20;;;4.20;;
9322;SDS011;4700;48.822;9.270;2022-08-21T05:55:52;4.87;;;4.30;;
9322;SDS011;4700;48.822;9.270;2022-08-21T05:58:38;3.80;;;3.53;;
9322;SDS011;4700;48.822;9.270;2022-08-21T06:01:24;4.37;;;4.07;;
9322;SDS011;4700;48.822;9.270;2022-08-21T06:04:11;4.87;;;4.47;;
9322;SDS011;4700;48.822;9.270;2022-08-21T06:06:56;5.50;;;4.60;;
9322;SDS011;4700;48.822;9.270;2022-08-21T06:09:42;4.33;;;3.90;;
9322;SDS011;4700;48.822;9.270;2022-08-21T06:12:28;4.43;;;3.93;;
9322;SDS011;4700;48.822;9.270;2022-08-21T06:15:13;6.13;;;3.60;;
9322;SDS011;4700;48.822;9.270;2022-08-21T06:18:02;4.33;;;4.03;;
9322;SDS011;4700;48.822;9.270;2022-08-21T06:20:49;5.13;;;3.80;;
9322;SDS011;4700;48.822;9.270;2022-08-21T06:23:35;4.83;;;3.90;;
9322;SDS011;4700;48.822;9.270;2022-08-21T06:26:21;6.30;;;3.63;;
9322;SDS011;4700;48.822;9.270;2022-08-21T06:29:07;5.43;;;4.93;;
9322;SDS011;4700;48.822;9.270;2022-08-21T06:31:54;4.63;;;3.60;;
9322;SDS011;4700;48.822;9.270;2022-08-21T06:34:40;4.17;;;3.87;;
9322;SDS011;4700;48.822;9.270;2022-08-21T06:37:28;6.07;;;5.50;;
9322;SDS011;4700;48.822;9.270;2022-08-21T06:40:14;5.93;;;3.43;;
9322;SDS011;4700;48.822;9.270;2022-08-21T06:43:04;3.97;;;3.60;;
9322;SDS011;4700;48.822;9.270;2022-08-21T06:45:51;3.13;;;2.83;;
9322;SDS011;4700;48.822;9.270;2022-08-21T06:48:37;2.67;;;2.47;;
9322;SDS011;4700;48.822;9.270;2022-08-21T06:51:23;2.97;;;2.73;;
9322;SDS011;4700;48.822;9.270;2022-08-21T06:54:11;3.23;;;2.67;;
9322;SDS011;4700;48.822;9.270;2022-08-21T06:56:57;3.17;;;2.53;;
9322;SDS011;4700;48.822;9.270;2022-08-21T06:59:42;2.67;;;2.47;;
9322;SDS011;4700;48.822;9.270;2022-08-21T07:02:31;2.40;;;2.20;;
9322;SDS011;4700;48.822;9.270;2022-08-21T07:05:17;2.00;;;1.83;;
9322;SDS011;4700;48.822;9.270;2022-08-21T07:08:03;2.23;;;2.03;;
9322;SDS011;4700;48.822;9.270;2022-08-21T07:10:53;4.53;;;2.37;;
9322;SDS011;4700;48.822;9.270;2022-08-21T07:13:40;3.70;;;2.40;;
9322;SDS011;4700;48.822;9.270;2022-08-21T07:16:26;2.50;;;2.30;;
9322;SDS011;4700;48.822;9.270;2022-08-21T07:19:11;3.60;;;3.17;;
9322;SDS011;4700;48.822;9.270;2022-08-21T07:21:58;3.47;;;2.37;;
9322;SDS011;4700;48.822;9.270;2022-08-21T07:24:46;4.00;;;3.20;;
9322;SDS011;4700;48.822;9.270;2022-08-21T07:27:33;3.43;;;2.90;;
9322;SDS011;4700;48.822;9.270;2022-08-21T07:30:22;4.40;;;3.23;;
9322;SDS011;4700;48.822;9.270;2022-08-21T07:33:08;5.40;;;3.43;;
9322;SDS011;4700;48.822;9.270;2022-08-21T07:35:54;3.23;;;2.93;;
9322;SDS011;4700;48.822;9.270;2022-08-21T07:38:40;4.20;;;3.67;;
9322;SDS011;4700;48.822;9.270;2022-08-21T07:41:26;6.20;;;3.33;;
9322;SDS011;4700;48.822;9.270;2022-08-21T07:44:14;4.70;;;3.40;;
9322;SDS011;4700;48.822;9.270;2022-08-21T07:47:00;5.40;;;3.80;;
9322;SDS011;4700;48.822;9.270;2022-08-21T07:49:46;4.23;;;3.00;;
9322;SDS011;4700;48.822;9.270;2022-08-21T07:52:33;3.20;;;2.60;;
9322;SDS011;4700;48.822;9.270;2022-08-21T07:55:20;5.90;;;3.17;;
9322;SDS011;4700;48.822;9.270;2022-08-21T07:58:06;3.70;;;3.40;;
9322;SDS011;4700;48.822;9.270;2022-08-21T08:00:53;3.63;;;3.33;;
9322;SDS011;4700;48.822;9.270;2022-08-21T08:03:39;3.97;;;3.67;;
9322;SDS011;4700;48.822;9.270;2022-08-21T08:06:25;4.40;;;3.70;;
9322;SDS011;4700;48.822;9.270;2022-08-21T08:09:11;5.30;;;4.10;;
9322;SDS011;4700;48.822;9.270;2022-08-21T08:11:57;5.50;;;4.30;;
9322;SDS011;4700;48.822;9.270;2022-08-21T08:14:42;4.63;;;4.03;;
9322;SDS011;4700;48.822;9.270;2022-08-21T08:17:32;5.37;;;3.97;;
9322;SDS011;4700;48.822;9.270;2022-08-21T08:20:18;5.57;;;5.03;;
9322;SDS011;4700;48.822;9.270;2022-08-21T08:23:05;4.90;;;4.50;;
9322;SDS011;4700;48.822;9.270;2022-08-21T08:25:54;4.87;;;4.50;;
9322;SDS011;4700;48.822;9.270;2022-08-21T08:28:40;4.50;;;4.20;;
9322;SDS011;4700;48.822;9.270;2022-08-21T08:31:26;6.13;;;4.07;;
9322;SDS011;4700;48.822;9.270;2022-08-21T08:34:13;6.30;;;4.33;;
9322;SDS011;4700;48.822;9.270;2022-08-21T08:36:58;5.53;;;5.13;;
9322;SDS011;4700;48.822;9.270;2022-08-21T08:39:44;5.67;;;5.07;;
9322;SDS011;4700;48.822;9.270;2022-08-21T08:42:33;4.70;;;4.30;;
9322;SDS011;4700;48.822;9.270;2022-08-21T08:45:21;4.73;;;4.33;;
9322;SDS011;4700;48.822;9.270;2022-08-21T08:48:10;4.43;;;4.00;;
9322;SDS011;4700;48.822;9.270;2022-08-21T08:51:01;4.07;;;3.80;;
9322;SDS011;4700;48.822;9.270;2022-08-21T08:53:51;4.77;;;3.97;;
9322;SDS011;4700;48.822;9.270;2022-08-21T08:56:40;7.07;;;4.23;;
9322;SDS011;4700;48.822;9.270;2022-08-21T08:59:27;7.30;;;4.40;;
9322;SDS011;4700;48.822;9.270;2022-08-21T09:02:21;6.53;;;4.40;;
9322;SDS011;4700;48.822;9.270;2022-08-21T09:05:09;4.87;;;4.47;;
9322;SDS011;4700;48.822;9.270;2022-08-21T09:11:26;4.87;;;4.40;;
9322;SDS011;4700;48.822;9.270;2022-08-21T09:14:20;5.63;;;4.33;;
9322;SDS011;4700;48.822;9.270;2022-08-21T09:17:19;4.90;;;4.50;;
9322;SDS011;4700;48.822;9.270;2022-08-21T09:20:18;5.70;;;5.10;;
9322;SDS011;4700;48.822;9.270;2022-08-21T09:23:12;4.47;;;4.10;;
9322;SDS011;4700;48.822;9.270;2022-08-21T09:26:13;4.47;;;4.03;;
9322;SDS011;4700;48.822;9.270;2022-08-21T09:29:00;4.73;;;4.00;;
9322;SDS011;4700;48.822;9.270;2022-08-21T09:31:46;5.80;;;4.50;;
9322;SDS011;4700;48.822;9.270;2022-08-21T09:34:32;4.63;;;3.90;;
9322;SDS011;4700;48.822;9.270;2022-08-21T09:37:18;5.10;;;3.93;;
9322;SDS011;4700;48.822;9.270;2022-08-21T09:40:13;4.50;;;4.10;;
9322;SDS011;4700;48.822;9.270;2022-08-21T09:43:06;4.90;;;4.47;;
9322;SDS011;4700;48.822;9.270;2022-08-21T09:46:06;3.83;;;3.53;;
9322;SDS011;4700;48.822;9.270;2022-08-21T09:48:55;4.63;;;3.63;;
9322;SDS011;4700;48.822;9.270;2022-08-21T09:51:49;4.70;;;4.20;;
9322;SDS011;4700;48.822;9.270;2022-08-21T09:54:38;4.23;;;3.80;;
9322;SDS011;4700;48.822;9.270;2022-08-21T09:57:26;4.20;;;3.80;;
9322;SDS011;4700;48.822;9.270;2022-08-21T10:00:31;3.70;;;3.40;;
9322;SDS011;4700;48.822;9.270;2022-08-21T10:03:21;4.90;;;3.47;;
9322;SDS011;4700;48.822;9.270;2022-08-21T10:06:09;4.43;;;3.00;;
9322;SDS011;4700;48.822;9.270;2022-08-21T10:09:03;6.87;;;4.43;;
9322;SDS011;4700;48.822;9.270;2022-08-21T10:11:52;6.10;;;3.87;;
9322;SDS011;4700;48.822;9.270;2022-08-21T10:14:45;5.30;;;3.50;;
9322;SDS011;4700;48.822;9.270;2022-08-21T10:17:42;6.40;;;4.20;;
9322;SDS011;4700;48.822;9.270;2022-08-21T10:20:37;5.60;;;3.90;;
9322;SDS011;4700;48.822;9.270;2022-08-21T10:23:29;6.03;;;4.50;;
9322;SDS011;4700;48.822;9.270;2022-08-21T10:26:30;5.53;;;3.37;;
9322;SDS011;4700;48.822;9.270;2022-08-21T10:29:33;6.27;;;3.57;;
9322;SDS011;4700;48.822;9.270;2022-08-21T10:32:36;5.80;;;3.70;;
9322;SDS011;4700;48.822;9.270;2022-08-21T10:35:40;4.83;;;3.37;;
9322;SDS011;4700;48.822;9.270;2022-08-21T10:38:47;4.30;;;3.10;;
9322;SDS011;4700;48.822;9.270;2022-08-21T10:41:44;4.63;;;3.70;;
9322;SDS011;4700;48.822;9.270;2022-08-21T10:45:00;5.57;;;4.03;;
9322;SDS011;4700;48.822;9.270;2022-08-21T10:47:55;4.43;;;4.03;;
9322;SDS011;4700;48.822;9.270;2022-08-21T10:50:47;7.23;;;3.60;;
9322;SDS011;4700;48.822;9.270;2022-08-21T10:53:47;10.17;;;4.40;;
9322;SDS011;4700;48.822;9.270;2022-08-21T10:56:40;4.07;;;3.60;;
9322;SDS011;4700;48.822;9.270;2022-08-21T10:59:28;10.63;;;4.03;;
9322;SDS011;4700;48.822;9.270;2022-08-21T11:02:19;5.63;;;4.20;;
9322;SDS011;4700;48.822;9.270;2022-08-21T11:05:12;6.00;;;3.50;;
9322;SDS011;4700;48.822;9.270;2022-08-21T11:08:02;6.00;;;3.80;;
9322;SDS011;4700;48.822;9.270;2022-08-21T11:11:04;5.50;;;3.73;;
9322;SDS011;4700;48.822;9.270;2022-08-21T11:13:54;7.50;;;3.80;;
9322;SDS011;4700;48.822;9.270;2022-08-21T11:16:45;3.77;;;3.30;;
9322;SDS011;4700;48.822;9.270;2022-08-21T11:19:38;9.37;;;4.40;;
9322;SDS011;4700;48.822;9.270;2022-08-21T11:22:35;3.97;;;3.47;;
9322;SDS011;4700;48.822;9.270;2022-08-21T11:25:26;6.20;;;4.17;;
9322;SDS011;4700;48.822;9.270;2022-08-21T11:28:17;7.50;;;4.30;;
9322;SDS011;4700;48.822;9.270;2022-08-21T11:31:11;4.67;;;3.43;;
9322;SDS011;4700;48.822;9.270;2022-08-21T11:34:20;6.30;;;3.90;;
9322;SDS011;4700;48.822;9.270;2022-08-21T11:37:19;4.80;;;4.10;;
9322;SDS011;4700;48.822;9.270;2022-08-21T11:40:36;4.23;;;3.27;;
9322;SDS011;4700;48.822;9.270;2022-08-21T11:43:33;5.47;;;3.63;;
9322;SDS011;4700;48.822;9.270;2022-08-21T11:46:28;4.13;;;3.50;;
9322;SDS011;4700;48.822;9.270;2022-08-21T11:49:26;6.40;;;3.63;;
9322;SDS011;4700;48.822;9.270;2022-08-21T11:52:25;4.33;;;2.73;;
9322;SDS011;4700;48.822;9.270;2022-08-21T11:55:17;4.30;;;3.30;;
9322;SDS011;4700;48.822;9.270;2022-08-21T11:58:10;6.17;;;3.10;;
9322;SDS011;4700;48.822;9.270;2022-08-21T12:01:03;4.13;;;3.70;;
9322;SDS011;4700;48.822;9.270;2022-08-21T12:03:53;6.30;;;3.23;;
9322;SDS011;4700;48.822;9.270;2022-08-21T12:06:44;3.80;;;3.23;;
9322;SDS011;4700;48.822;9.270;2022-08-21T12:09:33;5.40;;;2.83;;
9322;SDS011;4700;48.822;9.270;2022-08-21T12:12:26;5.03;;;3.67;;
9322;SDS011;4700;48.822;9.270;2022-08-21T12:15:16;7.03;;;3.33;;
9322;SDS011;4700;48.822;9.270;2022-08-21T12:18:20;4.53;;;3.30;;
9322;SDS011;4700;48.822;9.270;2022-08-21T12:21:22;4.10;;;3.70;;
9322;SDS011;4700;48.822;9.270;2022-08-21T12:24:15;4.17;;;3.07;;
9322;SDS011;4700;48.822;9.270;2022-08-21T12:27:13;4.83;;;3.60;;
9322;SDS011;4700;48.822;9.270;2022-08-21T12:30:20;3.97;;;3.23;;
9322;SDS011;4700;48.822;9.270;2022-08-21T12:33:22;3.53;;;3.03;;
9322;SDS011;4700;48.822;9.270;2022-08-21T12:36:11;5.80;;;5.30;;
9322;SDS011;4700;48.822;9.270;2022-08-21T12:39:01;5.83;;;3.10;;
9322;SDS011;4700;48.822;9.270;2022-08-21T12:41:51;5.00;;;3.50;;
9322;SDS011;4700;48.822;9.270;2022-08-21T12:44:43;3.13;;;2.90;;
9322;SDS011;4700;48.822;9.270;2022-08-21T12:47:36;4.77;;;3.50;;
9322;SDS011;4700;48.822;9.270;2022-08-21T12:50:32;3.90;;;3.60;;
9322;SDS011;4700;48.822;9.270;2022-08-21T12:53:25;4.73;;;3.60;;
9322;SDS011;4700;48.822;9.270;2022-08-21T12:56:14;5.27;;;3.87;;
9322;SDS011;4700;48.822;9.270;2022-08-21T12:59:02;4.27;;;3.20;;
9322;SDS011;4700;48.822;9.270;2022-08-21T13:01:51;6.10;;;3.20;;
9322;SDS011;4700;48.822;9.270;2022-08-21T13:04:39;4.50;;;3.60;;
9322;SDS011;4700;48.822;9.270;2022-08-21T13:07:28;4.20;;;3.30;;
9322;SDS011;4700;48.822;9.270;2022-08-21T13:10:17;3.07;;;2.77;;
9322;SDS011;4700;48.822;9.270;2022-08-21T13:13:07;3.37;;;3.07;;
9322;SDS011;4700;48.822;9.270;2022-08-21T13:16:04;3.60;;;3.30;;
9322;SDS011;4700;48.822;9.270;2022-08-21T13:18:55;4.57;;;3.40;;
9322;SDS011;4700;48.822;9.270;2022-08-21T13:21:43;4.27;;;3.30;;
9322;SDS011;4700;48.822;9.270;2022-08-21T13:24:30;4.03;;;3.47;;
9322;SDS011;4700;48.822;9.270;2022-08-21T13:27:20;4.10;;;3.20;;
9322;SDS011;4700;48.822;9.270;2022-08-21T13:30:09;5.13;;;3.60;;
9322;SDS011;4700;48.822;9.270;2022-08-21T13:32:58;3.80;;;2.60;;
9322;SDS011;4700;48.822;9.270;2022-08-21T13:35:48;3.47;;;3.00;;
9322;SDS011;4700;48.822;9.270;2022-08-21T13:38:36;3.90;;;2.83;;
9322;SDS011;4700;48.822;9.270;2022-08-21T13:41:25;4.93;;;3.50;;
9322;SDS011;4700;48.822;9.270;2022-08-21T13:44:15;4.90;;;3.30;;
9322;SDS011;4700;48.822;9.270;2022-08-21T13:47:03;4.97;;;3.73;;
9322;SDS011;4700;48.822;9.270;2022-08-21T13:49:52;4.87;;;3.00;;
9322;SDS011;4700;48.822;9.270;2022-08-21T13:52:46;5.03;;;3.20;;
9322;SDS011;4700;48.822;9.270;2022-08-21T13:55:36;3.47;;;3.03;;
9322;SDS011;4700;48.822;9.270;2022-08-21T13:58:24;4.13;;;3.23;;
9322;SDS011;4700;48.822;9.270;2022-08-21T14:01:17;4.00;;;3.00;;
9322;SDS011;4700;48.822;9.270;2022-08-21T14:04:06;6.20;;;3.23;;
9322;SDS011;4700;48.822;9.270;2022-08-21T14:07:01;4.83;;;3.10;;
9322;SDS011;4700;48.822;9.270;2022-08-21T14:09:48;3.50;;;3.20;;
9322;SDS011;4700;48.822;9.270;2022-08-21T14:12:37;6.33;;;4.10;;
9322;SDS011;4700;48.822;9.270;2022-08-21T14:15:28;3.80;;;3.17;;
9322;SDS011;4700;48.822;9.270;2022-08-21T14:18:16;4.60;;;2.93;;
9322;SDS011;4700;48.822;9.270;2022-08-21T14:21:04;3.80;;;3.10;;
9322;SDS011;4700;48.822;9.270;2022-08-21T14:23:58;6.70;;;3.97;;
9322;SDS011;4700;48.822;9.270;2022-08-21T14:26:50;4.43;;;3.33;;
9322;SDS011;4700;48.822;9.270;2022-08-21T14:29:38;3.60;;;3.03;;
9322;SDS011;4700;48.822;9.270;2022-08-21T14:32:28;4.30;;;2.93;;
9322;SDS011;4700;48.822;9.270;2022-08-21T14:35:15;4.37;;;3.00;;
9322;SDS011;4700;48.822;9.270;2022-08-21T14:38:01;3.97;;;3.03;;
9322;SDS011;4700;48.822;9.270;2022-08-21T14:40:48;4.40;;;3.40;;
9322;SDS011;4700;48.822;9.270;2022-08-21T14:43:37;3.77;;;3.47;;
9322;SDS011;4700;48.822;9.270;2022-08-21T14:46:24;3.63;;;3.30;;
9322;SDS011;4700;48.822;9.270;2022-08-21T14:49:11;4.43;;;3.20;;
9322;SDS011;4700;48.822;9.270;2022-08-21T14:51:58;2.97;;;2.67;;
9322;SDS011;4700;48.822;9.270;2022-08-21T14:54:44;4.10;;;3.30;;
9322;SDS011;4700;48.822;9.270;2022-08-21T14:57:29;3.33;;;3.03;;
9322;SDS011;4700;48.822;9.270;2022-08-21T15:00:18;3.13;;;2.80;;
9322;SDS011;4700;48.822;9.270;2022-08-21T15:03:05;4.60;;;2.83;;
9322;SDS011;4700;48.822;9.270;2022-08-21T15:05:51;3.70;;;2.90;;
9322;SDS011;4700;48.822;9.270;2022-08-21T15:08:37;3.57;;;2.80;;
9322;SDS011;4700;48.822;9.270;2022-08-21T15:11:22;7.27;;;3.73;;
9322;SDS011;4700;48.822;9.270;2022-08-21T15:14:10;3.57;;;3.03;;
9322;SDS011;4700;48.822;9.270;2022-08-21T15:17:03;5.93;;;2.90;;
9322;SDS011;4700;48.822;9.270;2022-08-21T15:19:50;3.87;;;2.93;;
9322;SDS011;4700;48.822;9.270;2022-08-21T15:22:38;4.43;;;3.10;;
9322;SDS011;4700;48.822;9.270;2022-08-21T15:25:24;2.53;;;2.23;;
9322;SDS011;4700;48.822;9.270;2022-08-21T15:28:13;5.47;;;3.50;;
9322;SDS011;4700;48.822;9.270;2022-08-21T15:31:00;3.70;;;3.23;;
9322;SDS011;4700;48.822;9.270;2022-08-21T15:33:47;3.70;;;2.40;;
9322;SDS011;4700;48.822;9.270;2022-08-21T15:36:33;3.17;;;2.63;;
9322;SDS011;4700;48.822;9.270;2022-08-21T15:39:20;3.60;;;3.20;;
9322;SDS011;4700;48.822;9.270;2022-08-21T15:42:08;3.60;;;3.30;;
9322;SDS011;4700;48.822;9.270;2022-08-21T15:44:56;3.93;;;3.00;;
9322;SDS011;4700;48.822;9.270;2022-08-21T15:47:42;3.40;;;2.70;;
9322;SDS011;4700;48.822;9.270;2022-08-21T15:50:31;5.60;;;2.90;;
9322;SDS011;4700;48.822;9.270;2022-08-21T15:53:17;3.23;;;2.67;;
9322;SDS011;4700;48.822;9.270;2022-08-21T15:56:02;3.93;;;3.10;;
9322;SDS011;4700;48.822;9.270;2022-08-21T15:58:49;3.67;;;2.90;;
9322;SDS011;4700;48.822;9.270;2022-08-21T16:01:35;4.67;;;3.60;;
9322;SDS011;4700;48.822;9.270;2022-08-21T16:04:22;2.70;;;2.50;;
9322;SDS011;4700;48.822;9.270;2022-08-21T16:07:12;4.40;;;3.13;;
9322;SDS011;4700;48.822;9.270;2022-08-21T16:09:57;4.80;;;3.23;;
9322;SDS011;4700;48.822;9.270;2022-08-21T16:12:44;5.20;;;3.20;;
9322;SDS011;4700;48.822;9.270;2022-08-21T16:15:33;3.53;;;3.17;;
9322;SDS011;4700;48.822;9.270;2022-08-21T16:18:19;4.33;;;3.00;;
9322;SDS011;4700;48.822;9.270;2022-08-21T16:21:07;3.27;;;2.97;;
9322;SDS011;4700;48.822;9.270;2022-08-21T16:23:54;3.70;;;2.70;;
9322;SDS011;4700;48.822;9.270;2022-08-21T16:26:40;4.03;;;3.17;;
9322;SDS011;4700;48.822;9.270;2022-08-21T16:29:25;3.43;;;2.80;;
9322;SDS011;4700;48.822;9.270;2022-08-21T16:32:13;2.77;;;2.57;;
9322;SDS011;4700;48.822;9.270;2022-08-21T16:34:59;3.00;;;2.70;;
9322;SDS011;4700;48.822;9.270;2022-08-21T16:37:46;3.80;;;2.90;;
9322;SDS011;4700;48.822;9.270;2022-08-21T16:40:34;3.40;;;2.90;;
9322;SDS011;4700;48.822;9.270;2022-08-21T16:43:20;4.90;;;3.13;;
9322;SDS011;4700;48.822;9.270;2022-08-21T16:46:07;3.50;;;2.83;;
9322;SDS011;4700;48.822;9.270;2022-08-21T16:48:54;3.37;;;3.07;;
9322;SDS011;4700;48.822;9.270;2022-08-21T16:51:40;5.20;;;2.60;;
9322;SDS011;4700;48.822;9.270;2022-08-21T16:54:26;3.17;;;2.87;;
9322;SDS011;4700;48.822;9.270;2022-08-21T16:57:16;3.83;;;2.80;;
9322;SDS011;4700;48.822;9.270;2022-08-21T17:00:03;4.43;;;3.30;;
9322;SDS011;4700;48.822;9.270;2022-08-21T17:02:52;3.50;;;2.47;;
9322;SDS011;4700;48.822;9.270;2022-08-21T17:05:39;4.83;;;2.60;;
9322;SDS011;4700;48.822;9.270;2022-08-21T17:08:25;3.10;;;2.80;;
9322;SDS011;4700;48.822;9.270;2022-08-21T17:11:13;5.47;;;3.10;;
9322;SDS011;4700;48.822;9.270;2022-08-21T17:14:08;2.60;;;2.40;;
9322;SDS011;4700;48.822;9.270;2022-08-21T17:17:00;3.23;;;2.90;;
9322;SDS011;4700;48.822;9.270;2022-08-21T17:19:48;3.27;;;2.97;;
9322;SDS011;4700;48.822;9.270;2022-08-21T17:22:34;3.80;;;3.50;;
9322;SDS011;4700;48.822;9.270;2022-08-21T17:25:19;2.57;;;2.37;;
9322;SDS011;4700;48.822;9.270;2022-08-21T17:28:07;3.00;;;2.57;;
9322;SDS011;4700;48.822;9.270;2022-08-21T17:30:59;3.87;;;3.13;;